createdAt,value
2022-12-22T00:01:57.932Z,14.97
2022-12-22T00:04:43.329Z,14.70
2022-12-22T00:07:28.451Z,15.27
2022-12-22T00:10:13.308Z,14.63
2022-12-22T00:12:58.539Z,14.47
2022-12-22T00:15:43.803Z,15.33
2022-12-22T00:18:34.621Z,14.73
2022-12-22T00:21:20.118Z,15.30
2022-12-22T00:24:05.295Z,15.73
2022-12-22T00:26:52.575Z,16.03
2022-12-22T00:29:37.975Z,16.23
2022-12-22T00:32:23.936Z,17.17
2022-12-22T00:35:09.816Z,15.40
2022-12-22T00:37:56.376Z,15.67
2022-12-22T00:40:45.344Z,15.70
2022-12-22T00:43:30.771Z,16.40
2022-12-22T00:46:17.431Z,16.07
2022-12-22T00:49:03.113Z,15.77
2022-12-22T00:51:49.473Z,16.87
2022-12-22T00:54:37.528Z,16.23
2022-12-22T00:57:23.871Z,15.63
2022-12-22T01:00:09.984Z,15.43
2022-12-22T01:02:55.009Z,15.30
2022-12-22T01:05:40.272Z,17.10
2022-12-22T01:08:28.021Z,15.10
2022-12-22T01:11:12.873Z,15.80
2022-12-22T01:13:57.856Z,13.30
2022-12-22T01:16:42.766Z,14.93
2022-12-22T01:19:27.974Z,14.53
2022-12-22T01:22:13.388Z,14.90
2022-12-22T01:24:58.265Z,14.00
2022-12-22T01:27:43.400Z,14.17
2022-12-22T01:30:29.196Z,14.70
2022-12-22T01:33:14.759Z,13.60
2022-12-22T01:35:59.913Z,14.87
2022-12-22T01:38:44.798Z,15.23
2022-12-22T01:41:37.253Z,15.50
2022-12-22T01:44:32.148Z,13.20
2022-12-22T01:47:48.287Z,15.30
2022-12-22T01:50:55.110Z,14.40
2022-12-22T01:53:43.755Z,14.20
2022-12-22T01:56:29.625Z,15.30
2022-12-22T01:59:18.005Z,14.90
2022-12-22T02:02:03.553Z,14.97
2022-12-22T02:04:54.998Z,14.80
2022-12-22T02:07:40.023Z,14.97
2022-12-22T02:10:40.634Z,14.20
2022-12-22T02:13:43.058Z,15.00
2022-12-22T02:16:45.715Z,13.53
2022-12-22T02:20:00.132Z,13.93
2022-12-22T02:22:58.017Z,12.53
2022-12-22T02:25:50.686Z,14.33
2022-12-22T02:28:36.200Z,13.93
2022-12-22T02:31:21.067Z,13.67
2022-12-22T02:34:06.176Z,13.50
2022-12-22T02:36:58.005Z,13.73
2022-12-22T02:40:12.809Z,13.90
2022-12-22T02:43:28.575Z,13.43
2022-12-22T02:46:31.115Z,13.43
2022-12-22T02:49:23.249Z,13.50
2022-12-22T02:52:16.663Z,14.10
2022-12-22T02:55:03.632Z,13.33
2022-12-22T02:57:49.027Z,12.67
2022-12-22T03:00:34.342Z,13.87
2022-12-22T03:03:19.920Z,13.07
2022-12-22T03:06:05.052Z,13.57
2022-12-22T03:08:50.322Z,12.57
2022-12-22T03:11:35.595Z,12.60
2022-12-22T03:14:20.448Z,13.10
2022-12-22T03:17:05.483Z,14.13
2022-12-22T03:19:50.345Z,12.93
2022-12-22T03:22:35.352Z,13.07
2022-12-22T03:25:20.298Z,12.87
2022-12-22T03:27:46.813Z,13.53
2022-12-22T03:30:13.499Z,12.90
2022-12-22T03:32:42.009Z,13.77
2022-12-22T03:35:08.780Z,13.03
2022-12-22T03:37:35.261Z,12.63
2022-12-22T03:40:01.832Z,13.43
2022-12-22T03:42:46.995Z,12.43
2022-12-22T03:45:31.939Z,11.83
2022-12-22T03:47:58.424Z,12.83
2022-12-22T03:50:24.899Z,13.13
2022-12-22T03:52:51.374Z,12.47
2022-12-22T03:55:17.885Z,12.53
2022-12-22T03:57:44.354Z,13.03
2022-12-22T04:00:11.340Z,12.47
2022-12-22T04:02:37.856Z,12.27
2022-12-22T04:05:04.793Z,11.67
2022-12-22T04:07:31.260Z,12.40
2022-12-22T04:10:16.866Z,13.93
2022-12-22T04:12:55.256Z,12.77
2022-12-22T04:15:32.392Z,12.60
2022-12-22T04:18:00.131Z,13.07
2022-12-22T04:20:27.741Z,12.93
2022-12-22T04:22:55.423Z,12.50
2022-12-22T04:25:22.749Z,13.03
2022-12-22T04:27:49.210Z,11.87
2022-12-22T04:30:16.203Z,13.80
2022-12-22T04:32:42.970Z,13.20
2022-12-22T04:35:10.889Z,12.37
2022-12-22T04:37:37.685Z,13.10
2022-12-22T04:40:04.589Z,12.40
2022-12-22T04:42:31.094Z,13.93
2022-12-22T04:44:57.530Z,12.13
2022-12-22T04:47:24.004Z,12.40
2022-12-22T04:49:50.493Z,11.77
2022-12-22T04:52:16.987Z,11.87
2022-12-22T04:54:43.508Z,11.80
2022-12-22T04:57:09.963Z,12.27
2022-12-22T04:59:36.507Z,11.57
2022-12-22T05:02:03.169Z,10.53
2022-12-22T05:04:29.743Z,10.97
2022-12-22T05:06:56.313Z,12.30
2022-12-22T05:09:22.794Z,12.43
2022-12-22T05:11:49.340Z,11.83
2022-12-22T05:14:15.847Z,11.70
2022-12-22T05:16:42.457Z,12.13
2022-12-22T05:19:09.007Z,11.20
2022-12-22T05:21:35.517Z,12.83
2022-12-22T05:24:01.966Z,12.23
2022-12-22T05:26:28.618Z,12.53
2022-12-22T05:28:55.158Z,15.00
2022-12-22T05:31:23.793Z,13.17
2022-12-22T05:33:50.899Z,12.60
2022-12-22T05:36:18.020Z,12.83
2022-12-22T05:38:44.948Z,12.97
2022-12-22T05:41:11.534Z,13.03
2022-12-22T05:43:38.040Z,11.83
2022-12-22T05:46:06.914Z,13.00
2022-12-22T05:48:38.576Z,13.40
2022-12-22T05:51:06.582Z,13.70
2022-12-22T05:53:33.084Z,13.90
2022-12-22T05:55:59.624Z,13.20
2022-12-22T05:58:26.286Z,12.90
2022-12-22T06:00:57.231Z,13.37
2022-12-22T06:03:24.708Z,13.53
2022-12-22T06:05:51.313Z,13.60
2022-12-22T06:08:17.830Z,14.73
2022-12-22T06:10:44.312Z,13.17
2022-12-22T06:13:10.886Z,13.73
2022-12-22T06:15:37.388Z,13.83
2022-12-22T06:18:04.126Z,13.80
2022-12-22T06:20:30.740Z,14.00
2022-12-22T06:22:57.202Z,20.00
2022-12-22T06:25:23.711Z,15.37
2022-12-22T06:27:50.194Z,15.10
2022-12-22T06:30:17.187Z,15.73
2022-12-22T06:32:43.982Z,15.47
2022-12-22T06:35:10.783Z,14.20
2022-12-22T06:37:37.397Z,15.07
2022-12-22T06:40:04.586Z,13.70
2022-12-22T06:42:49.603Z,14.63
2022-12-22T06:45:16.252Z,14.83
2022-12-22T06:47:42.793Z,14.17
2022-12-22T06:50:09.729Z,13.87
2022-12-22T06:52:36.242Z,14.67
2022-12-22T06:55:03.193Z,15.53
2022-12-22T06:57:29.822Z,15.73
2022-12-22T06:59:57.761Z,14.47
2022-12-22T07:02:25.006Z,15.00
2022-12-22T07:04:51.704Z,14.23
2022-12-22T07:07:18.234Z,14.63
2022-12-22T07:09:44.777Z,14.87
2022-12-22T07:12:11.268Z,14.95
2022-12-22T07:14:37.751Z,16.00
2022-12-22T07:17:04.300Z,15.67
2022-12-22T07:19:30.798Z,15.50
2022-12-22T07:21:57.442Z,15.33
2022-12-22T07:24:26.085Z,15.60
2022-12-22T07:26:53.072Z,15.43
2022-12-22T07:29:19.573Z,16.50
2022-12-22T07:31:46.539Z,15.67
2022-12-22T07:34:13.823Z,15.57
2022-12-22T07:36:40.453Z,16.43
2022-12-22T07:39:08.393Z,15.07
2022-12-22T07:41:53.373Z,15.87
2022-12-22T07:44:19.834Z,15.40
2022-12-22T07:46:46.522Z,15.80
2022-12-22T07:49:31.525Z,15.17
2022-12-22T07:51:58.221Z,15.17
2022-12-22T07:54:25.498Z,16.20
2022-12-22T07:56:52.614Z,15.00
2022-12-22T07:59:19.296Z,15.73
2022-12-22T08:01:46.918Z,16.00
2022-12-22T08:04:14.911Z,15.73
2022-12-22T08:06:42.020Z,15.10
2022-12-22T08:09:10.189Z,15.77
2022-12-22T08:11:36.649Z,16.70
2022-12-22T08:14:03.352Z,16.23
2022-12-22T08:16:29.989Z,16.47
2022-12-22T08:18:56.966Z,16.60
2022-12-22T08:21:23.781Z,15.30
2022-12-22T08:23:50.432Z,15.73
2022-12-22T08:26:37.098Z,14.97
2022-12-22T08:29:15.845Z,15.93
2022-12-22T08:31:44.307Z,16.13
2022-12-22T08:34:14.378Z,16.57
2022-12-22T08:36:46.449Z,19.97
2022-12-22T08:39:14.308Z,20.07
2022-12-22T08:41:50.001Z,17.10
2022-12-22T08:44:22.071Z,16.33
2022-12-22T08:46:49.195Z,16.17
2022-12-22T08:49:16.322Z,16.17
2022-12-22T08:51:43.165Z,16.50
2022-12-22T08:54:09.798Z,14.30
2022-12-22T08:56:36.617Z,16.50
2022-12-22T08:59:05.442Z,14.97
2022-12-22T09:01:33.579Z,15.20
2022-12-22T09:04:00.326Z,15.03
2022-12-22T09:06:34.628Z,14.03
2022-12-22T09:09:07.584Z,14.43
2022-12-22T09:11:34.718Z,14.37
2022-12-22T09:14:02.728Z,17.10
2022-12-22T09:16:31.500Z,17.20
2022-12-22T09:18:58.202Z,17.47
2022-12-22T09:21:25.459Z,14.13
2022-12-22T09:23:52.074Z,14.07
2022-12-22T09:26:21.030Z,13.57
2022-12-22T09:28:50.546Z,12.03
2022-12-22T09:31:18.451Z,12.03
2022-12-22T09:33:44.970Z,12.20
2022-12-22T09:36:14.620Z,10.47
2022-12-22T09:38:41.917Z,10.90
2022-12-22T09:41:34.848Z,11.03
2022-12-22T09:44:06.975Z,12.37
2022-12-22T09:46:36.816Z,11.90
2022-12-22T09:49:06.069Z,12.37
2022-12-22T09:51:40.342Z,13.23
2022-12-22T09:54:09.677Z,14.30
2022-12-22T09:56:36.159Z,15.10
2022-12-22T09:59:02.659Z,14.60
2022-12-22T10:01:41.354Z,15.63
2022-12-22T10:04:20.115Z,16.53
2022-12-22T10:07:11.024Z,16.27
2022-12-22T10:09:52.906Z,16.60
2022-12-22T10:12:23.225Z,17.37
2022-12-22T10:14:52.219Z,16.93
2022-12-22T10:17:20.848Z,17.00
2022-12-22T10:19:49.731Z,17.47
2022-12-22T10:22:33.312Z,20.40
2022-12-22T10:25:02.413Z,15.33
2022-12-22T10:27:41.862Z,14.70
2022-12-22T10:30:24.740Z,14.77
2022-12-22T10:33:04.632Z,15.20
2022-12-22T10:35:53.639Z,12.17
2022-12-22T10:38:32.509Z,13.57
2022-12-22T10:41:05.053Z,14.00
2022-12-22T10:43:35.124Z,14.40
2022-12-22T10:46:03.423Z,13.93
2022-12-22T10:48:39.091Z,13.80
2022-12-22T10:51:08.586Z,14.00
2022-12-22T10:53:56.356Z,14.30
2022-12-22T10:56:32.172Z,15.10
2022-12-22T10:59:01.744Z,14.67
2022-12-22T11:01:31.799Z,13.73
2022-12-22T11:04:15.164Z,13.93
2022-12-22T11:06:45.290Z,14.07
2022-12-22T11:09:32.564Z,14.13
2022-12-22T11:12:05.814Z,19.57
2022-12-22T11:15:11.414Z,15.10
2022-12-22T11:17:59.367Z,12.60
2022-12-22T11:20:38.231Z,12.93
2022-12-22T11:23:22.631Z,12.27
2022-12-22T11:26:08.017Z,11.33
2022-12-22T11:29:03.231Z,11.80
2022-12-22T11:31:56.860Z,11.03
2022-12-22T11:34:38.896Z,12.17
2022-12-22T11:37:29.415Z,12.50
2022-12-22T11:40:17.484Z,11.53
2022-12-22T11:43:01.030Z,10.80
2022-12-22T11:45:47.191Z,10.57
2022-12-22T11:48:32.493Z,12.03
2022-12-22T11:51:14.161Z,11.13
2022-12-22T11:54:08.675Z,12.60
2022-12-22T11:56:40.856Z,10.97
2022-12-22T11:59:24.990Z,10.73
2022-12-22T12:02:10.108Z,10.97
2022-12-22T12:04:49.145Z,10.80
2022-12-22T12:07:28.063Z,11.43
2022-12-22T12:10:16.506Z,11.30
2022-12-22T12:12:55.272Z,12.17
2022-12-22T12:15:32.521Z,10.63
2022-12-22T12:18:37.335Z,11.13
2022-12-22T12:21:28.987Z,10.43
2022-12-22T12:24:10.264Z,10.83
2022-12-22T12:27:07.280Z,10.47
2022-12-22T12:29:48.709Z,9.87
2022-12-22T12:32:28.988Z,10.83
2022-12-22T12:35:15.866Z,10.57
2022-12-22T12:37:46.391Z,10.03
2022-12-22T12:40:33.827Z,10.40
2022-12-22T12:43:01.407Z,9.27
2022-12-22T12:45:35.712Z,9.83
2022-12-22T12:48:20.508Z,9.53
2022-12-22T12:50:48.176Z,9.83
2022-12-22T12:53:15.695Z,10.13
2022-12-22T12:55:43.067Z,9.93
2022-12-22T12:58:11.542Z,9.90
2022-12-22T13:00:45.047Z,9.97
2022-12-22T13:06:49.953Z,10.37
2022-12-22T13:09:50.528Z,9.47
2022-12-22T13:12:34.706Z,8.80
2022-12-22T13:15:02.008Z,8.30
2022-12-22T13:17:38.412Z,8.57
2022-12-22T13:20:06.542Z,7.33
2022-12-22T13:22:33.442Z,7.80
2022-12-22T13:25:02.355Z,7.03
2022-12-22T13:27:30.658Z,7.23
2022-12-22T13:29:58.482Z,7.73
2022-12-22T13:32:34.653Z,8.17
2022-12-22T13:37:58.507Z,7.80
2022-12-22T13:40:40.060Z,7.83
2022-12-22T13:43:17.994Z,8.30
2022-12-22T13:45:47.880Z,7.97
2022-12-22T13:48:25.827Z,7.57
2022-12-22T13:51:04.016Z,7.67
2022-12-22T13:54:07.242Z,7.50
2022-12-22T13:56:40.059Z,8.27
2022-12-22T13:59:21.885Z,8.20
2022-12-22T14:02:11.197Z,8.83
2022-12-22T14:04:41.819Z,8.80
2022-12-22T14:07:11.393Z,8.17
2022-12-22T14:09:37.930Z,11.73
2022-12-22T14:12:11.864Z,8.27
2022-12-22T14:14:41.176Z,8.37
2022-12-22T14:17:32.702Z,8.40
2022-12-22T14:20:01.682Z,8.00
2022-12-22T14:22:43.061Z,8.57
2022-12-22T14:25:14.574Z,8.13
2022-12-22T14:27:54.575Z,7.70
2022-12-22T14:30:24.389Z,7.67
2022-12-22T14:32:56.116Z,8.40
2022-12-22T14:35:22.770Z,8.43
2022-12-22T14:37:58.790Z,8.87
2022-12-22T14:40:40.552Z,8.10
2022-12-22T14:43:21.478Z,7.47
2022-12-22T14:45:50.129Z,8.07
2022-12-22T14:48:32.312Z,7.93
2022-12-22T14:50:59.337Z,8.83
2022-12-22T14:53:31.330Z,9.10
2022-12-22T14:55:57.843Z,8.67
2022-12-22T14:58:39.024Z,8.47
2022-12-22T15:01:23.195Z,8.60
2022-12-22T15:04:17.241Z,9.17
2022-12-22T15:06:47.882Z,8.13
2022-12-22T15:09:14.392Z,9.20
2022-12-22T15:11:51.513Z,8.70
2022-12-22T15:14:22.138Z,9.43
2022-12-22T15:16:49.059Z,8.33
2022-12-22T15:19:18.473Z,8.57
2022-12-22T15:21:45.067Z,9.57
2022-12-22T15:24:13.150Z,9.93
2022-12-22T15:26:39.721Z,9.70
2022-12-22T15:29:06.222Z,10.43
2022-12-22T15:31:33.112Z,8.87
2022-12-22T15:34:03.232Z,9.20
2022-12-22T15:36:29.924Z,9.33
2022-12-22T15:38:56.477Z,8.70
2022-12-22T15:41:23.229Z,9.40
2022-12-22T15:43:58.698Z,8.90
2022-12-22T15:46:25.738Z,9.07
2022-12-22T15:48:52.844Z,8.63
2022-12-22T15:51:29.031Z,8.10
2022-12-22T15:53:57.271Z,8.43
2022-12-22T15:56:25.675Z,8.00
2022-12-22T15:58:53.093Z,8.10
2022-12-22T16:01:19.643Z,7.90
2022-12-22T16:03:46.230Z,8.23
2022-12-22T16:06:15.421Z,7.17
2022-12-22T16:08:48.895Z,8.40
2022-12-22T16:11:16.256Z,8.23
2022-12-22T16:13:42.894Z,7.87
2022-12-22T16:16:09.713Z,9.27
2022-12-22T16:18:36.253Z,8.60
2022-12-22T16:21:15.607Z,10.30
2022-12-22T16:23:47.931Z,9.13
2022-12-22T16:26:17.858Z,10.10
2022-12-22T16:28:44.735Z,8.93
2022-12-22T16:31:24.150Z,9.63
2022-12-22T16:33:51.621Z,9.13
2022-12-22T16:36:18.456Z,7.90
2022-12-22T16:38:45.916Z,8.27
2022-12-22T16:41:22.799Z,8.93
2022-12-22T16:46:30.562Z,7.80
2022-12-22T16:48:59.996Z,8.50
2022-12-22T16:51:36.905Z,10.13
2022-12-22T16:54:03.526Z,9.77
2022-12-22T16:56:31.475Z,9.17
2022-12-22T16:58:58.286Z,8.23
2022-12-22T17:01:34.068Z,6.63
2022-12-22T17:04:09.331Z,6.53
2022-12-22T17:06:37.084Z,7.17
2022-12-22T17:09:07.209Z,7.83
2022-12-22T17:11:34.581Z,7.70
2022-12-22T17:14:29.020Z,7.43
2022-12-22T17:16:55.591Z,6.70
2022-12-22T17:19:22.072Z,6.93
2022-12-22T17:21:49.098Z,6.87
2022-12-22T17:24:24.331Z,6.53
2022-12-22T17:26:54.434Z,6.80
2022-12-22T17:29:23.727Z,7.63
2022-12-22T17:31:51.111Z,6.23
2022-12-22T17:34:19.046Z,6.67
2022-12-22T17:36:47.676Z,6.00
2022-12-22T17:39:16.666Z,6.67
2022-12-22T17:41:43.364Z,7.77
2022-12-22T17:44:16.480Z,7.33
2022-12-22T17:46:43.148Z,7.10
2022-12-22T17:49:09.668Z,7.33
2022-12-22T17:51:37.079Z,8.40
2022-12-22T17:54:04.113Z,7.77
2022-12-22T17:56:31.115Z,6.47
2022-12-22T17:59:31.061Z,7.53
2022-12-22T18:01:58.311Z,7.63
2022-12-22T18:04:25.092Z,8.90
2022-12-22T18:06:51.727Z,7.40
2022-12-22T18:09:24.391Z,8.17
2022-12-22T18:11:51.382Z,6.37
2022-12-22T18:14:23.545Z,8.20
2022-12-22T18:16:50.259Z,6.83
2022-12-22T18:19:16.963Z,9.03
2022-12-22T18:21:43.823Z,8.43
2022-12-22T18:24:19.565Z,8.03
2022-12-22T18:26:47.217Z,8.30
2022-12-22T18:29:15.791Z,8.37
2022-12-22T18:31:44.322Z,8.30
2022-12-22T18:34:12.583Z,9.27
2022-12-22T18:36:42.349Z,8.10
2022-12-22T18:39:17.450Z,8.20
2022-12-22T18:41:44.272Z,8.63
2022-12-22T18:44:18.753Z,8.03
2022-12-22T18:46:45.807Z,9.90
2022-12-22T18:49:12.712Z,8.17
2022-12-22T18:51:39.229Z,8.73
2022-12-22T18:54:21.282Z,8.17
2022-12-22T18:56:49.309Z,7.80
2022-12-22T18:59:24.562Z,9.30
2022-12-22T19:01:52.520Z,9.33
2022-12-22T19:04:19.398Z,9.03
2022-12-22T19:06:46.296Z,9.33
2022-12-22T19:09:15.477Z,10.07
2022-12-22T19:11:43.323Z,10.00
2022-12-22T19:14:20.678Z,9.63
2022-12-22T19:16:47.575Z,10.03
2022-12-22T19:19:19.214Z,9.73
2022-12-22T19:21:47.160Z,9.07
2022-12-22T19:24:13.881Z,9.20
2022-12-22T19:26:40.983Z,10.07
2022-12-22T19:29:09.948Z,9.27
2022-12-22T19:31:37.854Z,9.00
2022-12-22T19:34:07.049Z,9.30
2022-12-22T19:36:34.729Z,9.17
2022-12-22T19:39:05.050Z,10.10
2022-12-22T19:41:52.526Z,10.87
2022-12-22T19:44:30.695Z,8.53
2022-12-22T19:47:01.696Z,9.73
2022-12-22T19:49:29.298Z,10.80
2022-12-22T19:51:57.041Z,10.03
2022-12-22T19:54:24.188Z,9.30
2022-12-22T19:56:55.696Z,10.87
2022-12-22T19:59:39.024Z,10.37
2022-12-22T20:02:35.391Z,10.13
2022-12-22T20:05:02.138Z,10.17
2022-12-22T20:07:30.592Z,9.47
2022-12-22T20:09:57.120Z,9.37
2022-12-22T20:12:31.529Z,10.43
2022-12-22T20:14:58.839Z,9.40
2022-12-22T20:17:25.458Z,9.90
2022-12-22T20:19:52.033Z,10.10
2022-12-22T20:22:21.470Z,10.20
2022-12-22T20:24:49.965Z,10.67
2022-12-22T20:27:22.047Z,11.07
2022-12-22T20:29:48.683Z,11.67
2022-12-22T20:32:15.876Z,10.90
2022-12-22T20:34:43.248Z,10.07
2022-12-22T20:37:15.101Z,11.30
2022-12-22T20:39:42.513Z,12.23
2022-12-22T20:42:18.997Z,12.30
2022-12-22T20:45:02.369Z,12.03
2022-12-22T20:47:30.182Z,12.10
2022-12-22T20:49:56.696Z,14.00
2022-12-22T20:52:23.164Z,12.60
2022-12-22T20:54:49.720Z,12.83
2022-12-22T20:57:17.016Z,13.33
2022-12-22T20:59:44.550Z,12.27
2022-12-22T21:02:22.177Z,11.93
2022-12-22T21:04:49.955Z,13.27
2022-12-22T21:07:16.701Z,14.07
2022-12-22T21:09:43.400Z,13.00
2022-12-22T21:12:09.942Z,12.57
2022-12-22T21:14:36.416Z,12.93
2022-12-22T21:17:03.229Z,12.80
2022-12-22T21:19:29.803Z,14.17
2022-12-22T21:21:56.325Z,12.93
2022-12-22T21:24:22.866Z,13.13
2022-12-22T21:26:53.250Z,14.03
2022-12-22T21:29:24.085Z,15.30
2022-12-22T21:31:51.029Z,14.00
2022-12-22T21:34:17.740Z,13.87
2022-12-22T21:36:46.656Z,12.20
2022-12-22T21:39:26.672Z,12.20
2022-12-22T21:42:04.515Z,13.87
2022-12-22T21:44:33.890Z,13.10
2022-12-22T21:47:01.265Z,13.87
2022-12-22T21:49:30.204Z,12.93
2022-12-22T21:51:56.973Z,12.93
2022-12-22T21:54:24.921Z,13.43
2022-12-22T21:56:53.499Z,12.83
2022-12-22T21:59:20.683Z,13.67
2022-12-22T22:01:47.338Z,13.63
2022-12-22T22:04:14.553Z,13.13
2022-12-22T22:06:41.204Z,12.60
2022-12-22T22:09:07.788Z,12.77
2022-12-22T22:11:54.349Z,12.90
2022-12-22T22:14:21.292Z,13.47
2022-12-22T22:16:48.202Z,13.87
2022-12-22T22:19:14.810Z,14.83
2022-12-22T22:21:41.312Z,14.57
2022-12-22T22:24:07.799Z,13.80
2022-12-22T22:26:34.299Z,14.77
2022-12-22T22:29:00.805Z,14.20
2022-12-22T22:31:27.367Z,12.70
2022-12-22T22:33:54.032Z,14.03
2022-12-22T22:36:20.527Z,13.57
2022-12-22T22:38:51.009Z,13.37
2022-12-22T22:41:17.639Z,12.90
2022-12-22T22:43:44.208Z,12.63
2022-12-22T22:46:10.777Z,14.10
2022-12-22T22:48:37.401Z,12.93
2022-12-22T22:51:03.963Z,14.83
2022-12-22T22:53:30.890Z,13.00
2022-12-22T22:56:02.903Z,13.13
2022-12-22T22:58:29.841Z,14.47
2022-12-22T23:01:03.403Z,13.67
2022-12-22T23:03:30.852Z,14.07
2022-12-22T23:06:06.399Z,13.83
2022-12-22T23:08:33.549Z,14.63
2022-12-22T23:11:01.260Z,14.27
2022-12-22T23:13:28.524Z,14.73
2022-12-22T23:15:57.356Z,13.87
2022-12-22T23:18:24.278Z,13.73
2022-12-22T23:20:51.119Z,14.53
2022-12-22T23:23:18.327Z,14.87
2022-12-22T23:25:46.868Z,14.47
2022-12-22T23:28:13.453Z,13.90
2022-12-22T23:30:41.785Z,14.97
2022-12-22T23:33:08.638Z,16.73
2022-12-22T23:35:39.839Z,14.60
2022-12-22T23:38:09.803Z,15.37
2022-12-22T23:40:54.570Z,15.60
2022-12-22T23:43:21.676Z,14.57
2022-12-22T23:45:48.158Z,15.13
2022-12-22T23:48:15.001Z,14.27
2022-12-22T23:50:41.759Z,15.57
2022-12-22T23:53:08.340Z,14.40
2022-12-22T23:55:34.833Z,15.03
2022-12-22T23:58:01.356Z,15.10
